Sunday, August 19, 2018, 12:28 AM GMT
Back to Local

CXHF, High Falls , Que.

Location: , , Canada Lat: 45.833
Local Time: 12:28 AM GMT ( 0:28 GMT) Lon: -75.65
Time Zone: GMT Elev: 623 ft

Show me the last for .
Show Coded

Time T Td Feel RH Dir Speed Gust Alt SLP Vis Weather Sky Remarks
2018-08-19 00:00 68 63 - 85 - - - - - 0 None
2018-08-18 23:00 71 63 76 75 - - - - - 0 None
2018-08-18 21:00 74 61 77 64 - - - - - 0 None
2018-08-18 20:00 74 62 77 68 - - - - - 0 None
2018-08-18 19:00 73 61 77 67 - - - - - 0 None
2018-08-18 18:00 71 62 76 72 - - - - - 0 None
2018-08-18 17:00 70 62 - 76 - - - - - 0 None
2018-08-18 16:00 68 60 - 76 - - - - - 0 None
2018-08-18 13:00 63 60 - 90 - - - - - 0 None
2018-08-18 12:00 61 59 - 91 - - - - - 0 None
2018-08-18 11:00 60 59 - 95 - - - - - 0 None
2018-08-18 10:00 60 58 - 94 - - - - - 0 None
2018-08-18 09:00 60 58 - 92 - - - - - 0 None
2018-08-18 08:00 60 56 - 86 - - - - - 0 None
2018-08-18 07:00 60 58 - 94 - - - - - 0 None
2018-08-18 06:00 58 58 - 98 - - - - - 0 None
2018-08-18 05:00 60 57 - 90 - - - - - 0 None
2018-08-18 04:00 61 58 - 91 - - - - - 0 None
2018-08-18 03:00 62 60 - 90 - - - - - 0 None
2018-08-18 02:00 63 60 - 90 - - - - - 0 None
2018-08-18 01:00 64 60 - 88 - - - - - 0 None

Support USWX by starting your Amazon purchase here.